Time;durP1;ratioP1;P1;durP2;ratioP2;P2;SDS_P1;SDS_P2;PMS_P1;PMS_P2;Temp;Humidity;BMP_temperature;BMP_pressure;BME280_temperature;BME280_humidity;BME280_pressure;Samples;Min_cycle;Max_cycle;Signal;HPM_P1;HPM_P2
2021/08/31 00:00:17;;;;;;;6.75;4.50;;;18.60;99.90;;;;;;5069395;28;20653;-72
2021/08/31 00:02:45;;;;;;;6.20;4.90;;;18.60;99.90;;;;;;5065433;28;20201;-73
2021/08/31 00:05:14;;;;;;;6.93;4.75;;;18.60;99.90;;;;;;5069487;28;20193;-74
2021/08/31 00:07:42;;;;;;;8.40;5.10;;;18.60;99.90;;;;;;5067370;28;20209;-73
2021/08/31 00:10:11;;;;;;;8.85;4.55;;;18.50;99.90;;;;;;5068352;28;20197;-73
2021/08/31 00:12:38;;;;;;;6.57;5.18;;;18.50;99.90;;;;;;5065756;28;20237;-73
2021/08/31 00:15:07;;;;;;;7.40;4.93;;;18.50;99.90;;;;;;5069568;28;20208;-73
2021/08/31 00:17:34;;;;;;;4.63;4.20;;;18.50;99.90;;;;;;5068974;28;20743;-72
2021/08/31 00:20:02;;;;;;;5.05;4.45;;;18.50;99.90;;;;;;5068993;28;20209;-72
2021/08/31 00:22:31;;;;;;;5.85;4.25;;;18.50;99.90;;;;;;5067411;28;20197;-72
2021/08/31 00:24:58;;;;;;;6.85;4.95;;;18.50;99.90;;;;;;5067188;28;20231;-74
2021/08/31 00:27:24;;;;;;;10.40;5.28;;;18.50;99.90;;;;;;5065673;28;20213;-73
2021/08/31 00:29:51;;;;;;;9.20;4.55;;;18.40;99.90;;;;;;5065138;28;20669;-73
2021/08/31 00:32:18;;;;;;;8.50;5.07;;;18.40;99.90;;;;;;5067846;28;20212;-73
2021/08/31 00:34:45;;;;;;;10.07;4.82;;;18.30;99.90;;;;;;5056285;28;20666;-74
2021/08/31 00:37:12;;;;;;;11.20;5.82;;;18.30;99.90;;;;;;5068401;28;20554;-72
2021/08/31 00:39:40;;;;;;;7.57;4.68;;;18.30;99.90;;;;;;5060441;28;20217;-72
2021/08/31 00:42:07;;;;;;;9.40;5.05;;;18.20;99.90;;;;;;5068120;28;20212;-73
2021/08/31 00:44:35;;;;;;;8.80;5.20;;;18.30;99.90;;;;;;5066210;28;20296;-71
2021/08/31 00:47:03;;;;;;;12.68;5.63;;;18.30;99.90;;;;;;5067104;28;20221;-72
2021/08/31 00:49:31;;;;;;;9.35;6.15;;;18.30;99.90;;;;;;5067366;28;20303;-72
2021/08/31 00:51:59;;;;;;;9.82;4.90;;;18.30;99.90;;;;;;5067082;28;20777;-72
2021/08/31 00:54:27;;;;;;;6.47;4.90;;;18.30;99.90;;;;;;5065008;28;20196;-72
2021/08/31 00:56:57;;;;;;;5.18;4.25;;;18.30;99.90;;;;;;5067215;28;20736;-72
2021/08/31 00:59:24;;;;;;;6.97;4.88;;;18.30;99.90;;;;;;5066467;28;20286;-72
2021/08/31 01:01:53;;;;;;;5.60;4.85;;;18.30;99.90;;;;;;5068738;28;20691;-72
2021/08/31 01:04:20;;;;;;;10.02;5.28;;;18.30;99.90;;;;;;5066437;28;20193;-71
2021/08/31 01:06:47;;;;;;;11.15;5.78;;;18.30;99.90;;;;;;5062985;28;20604;-73
2021/08/31 01:09:14;;;;;;;10.63;5.30;;;18.30;99.90;;;;;;5061701;28;20208;-73
2021/08/31 01:11:41;;;;;;;8.88;5.05;;;18.30;99.90;;;;;;5067338;28;20193;-72
2021/08/31 01:14:10;;;;;;;5.82;4.30;;;18.20;99.90;;;;;;5065885;28;20237;-73
2021/08/31 01:16:37;;;;;;;8.35;4.20;;;18.20;99.90;;;;;;5067829;28;20224;-72
2021/08/31 01:19:05;;;;;;;4.60;4.05;;;18.20;99.90;;;;;;5066769;28;20220;-73
2021/08/31 01:21:32;;;;;;;6.60;4.73;;;18.20;99.90;;;;;;5064559;28;20193;-73
2021/08/31 01:23:59;;;;;;;8.80;4.35;;;18.20;99.90;;;;;;5064395;28;20544;-72
2021/08/31 01:26:28;;;;;;;8.23;5.30;;;18.10;99.90;;;;;;5065834;28;20269;-74
2021/08/31 01:28:56;;;;;;;6.88;4.72;;;18.20;99.90;;;;;;5065047;28;20208;-72
2021/08/31 01:31:23;;;;;;;10.88;4.95;;;18.10;99.90;;;;;;5067605;28;20209;-73
2021/08/31 01:33:50;;;;;;;7.90;5.25;;;18.20;99.90;;;;;;5063531;28;20193;-71
2021/08/31 01:36:21;;;;;;;8.60;5.47;;;18.20;99.90;;;;;;5058643;28;20213;-72
2021/08/31 01:38:49;;;;;;;10.97;5.73;;;18.30;99.90;;;;;;5065075;28;20634;-71
2021/08/31 01:41:16;;;;;;;9.27;5.10;;;18.20;99.90;;;;;;5056100;28;20201;-71
2021/08/31 01:43:45;;;;;;;11.23;5.78;;;18.20;99.90;;;;;;5067366;28;20434;-72
2021/08/31 01:46:13;;;;;;;5.75;4.65;;;18.20;99.90;;;;;;5066578;28;20201;-71
2021/08/31 01:48:40;;;;;;;9.17;5.83;;;18.20;99.90;;;;;;5067513;28;20193;-71
2021/08/31 01:51:07;;;;;;;6.43;5.18;;;18.20;99.90;;;;;;5067932;28;20270;-73
2021/08/31 01:53:35;;;;;;;7.53;4.78;;;18.20;99.90;;;;;;5067712;28;20223;-73
2021/08/31 01:56:02;;;;;;;6.18;4.22;;;18.20;99.90;;;;;;5068766;28;20878;-72
2021/08/31 01:58:29;;;;;;;11.00;4.93;;;18.40;99.90;;;;;;5068479;28;20224;-72
2021/08/31 02:00:58;;;;;;;8.23;5.03;;;18.20;99.90;;;;;;5066185;28;20593;-71
2021/08/31 02:03:25;;;;;;;6.73;4.53;;;18.30;99.90;;;;;;5064278;28;20703;-73
2021/08/31 02:05:52;;;;;;;8.13;4.90;;;18.20;99.90;;;;;;5067417;28;20197;-72
2021/08/31 02:08:19;;;;;;;6.78;5.13;;;18.20;99.90;;;;;;5069773;28;20672;-72
2021/08/31 02:10:46;;;;;;;9.55;4.80;;;18.20;99.90;;;;;;5070818;28;20201;-72
2021/08/31 02:13:13;;;;;;;6.13;4.40;;;18.20;99.90;;;;;;5071230;28;20240;-72
2021/08/31 02:15:40;;;;;;;7.72;4.63;;;18.20;99.90;;;;;;5064516;28;20217;-72
2021/08/31 02:18:08;;;;;;;5.85;4.80;;;18.20;99.90;;;;;;5071589;28;20314;-72
2021/08/31 02:20:38;;;;;;;8.63;5.03;;;18.20;99.90;;;;;;5072207;28;20193;-73
2021/08/31 02:23:06;;;;;;;7.38;4.63;;;18.20;99.90;;;;;;5071190;28;20197;-72
2021/08/31 02:25:33;;;;;;;7.10;5.25;;;18.20;99.90;;;;;;5070357;28;20201;-71
2021/08/31 02:28:00;;;;;;;9.27;6.90;;;18.10;99.90;;;;;;5070217;28;20285;-73
2021/08/31 02:30:28;;;;;;;9.35;7.43;;;18.10;99.90;;;;;;5071440;28;20549;-72
2021/08/31 02:32:59;;;;;;;14.75;9.07;;;18.20;99.90;;;;;;5071873;28;20197;-72
2021/08/31 02:35:28;;;;;;;10.45;7.95;;;18.20;99.90;;;;;;5059232;28;20193;-72
2021/08/31 02:37:55;;;;;;;8.97;7.23;;;18.20;99.90;;;;;;5058643;28;20709;-73
2021/08/31 02:40:22;;;;;;;10.13;7.65;;;18.20;99.90;;;;;;5059778;28;20217;-72
2021/08/31 02:42:49;;;;;;;12.43;8.65;;;18.20;99.90;;;;;;5070863;28;20668;-72
2021/08/31 02:45:16;;;;;;;12.45;8.00;;;18.20;99.90;;;;;;5071237;28;20189;-72
2021/08/31 02:47:43;;;;;;;9.63;6.00;;;18.20;99.90;;;;;;5068584;28;20197;-72
2021/08/31 02:50:11;;;;;;;9.27;5.82;;;18.20;99.90;;;;;;5064362;28;20197;-72
2021/08/31 02:52:39;;;;;;;6.25;5.25;;;18.20;99.90;;;;;;5070496;28;20611;-72
2021/08/31 02:55:06;;;;;;;12.40;9.30;;;18.10;99.90;;;;;;5065985;28;20201;-72
2021/08/31 02:57:33;;;;;;;18.30;12.40;;;18.10;99.90;;;;;;5069393;28;20653;-72
2021/08/31 03:00:01;;;;;;;20.15;13.55;;;18.10;99.90;;;;;;5067482;28;20688;-73
2021/08/31 03:02:28;;;;;;;19.23;15.87;;;18.10;99.90;;;;;;5062546;28;20202;-73
2021/08/31 03:04:55;;;;;;;17.40;14.77;;;18.10;99.90;;;;;;5066555;28;20193;-73
2021/08/31 03:07:22;;;;;;;17.85;11.15;;;18.10;99.90;;;;;;5056977;28;20466;-72
2021/08/31 03:09:51;;;;;;;14.60;9.65;;;18.10;99.90;;;;;;5064411;28;20206;-73
2021/08/31 03:12:18;;;;;;;12.30;7.80;;;18.10;99.90;;;;;;5068014;28;20680;-73
2021/08/31 03:14:45;;;;;;;13.50;10.35;;;18.10;99.90;;;;;;5079772;28;20658;-73
2021/08/31 03:17:12;;;;;;;14.77;11.57;;;18.10;99.90;;;;;;5070365;28;20212;-73
2021/08/31 03:19:39;;;;;;;15.88;12.80;;;18.10;99.90;;;;;;5070206;28;20217;-72
2021/08/31 03:22:09;;;;;;;23.98;15.63;;;18.10;99.90;;;;;;5064126;28;20198;-73
2021/08/31 03:24:37;;;;;;;21.60;16.02;;;18.10;99.90;;;;;;5068692;28;20225;-72
2021/08/31 03:27:07;;;;;;;18.88;15.30;;;18.00;99.90;;;;;;5065520;28;20518;-72
2021/08/31 03:29:35;;;;;;;20.98;14.77;;;18.10;99.90;;;;;;5068665;28;20204;-73
2021/08/31 03:32:02;;;;;;;18.20;13.82;;;18.10;99.90;;;;;;5069613;28;20657;-73
2021/08/31 03:34:29;;;;;;;20.48;15.25;;;18.10;99.90;;;;;;5059865;28;20696;-72
2021/08/31 03:36:56;;;;;;;20.08;14.80;;;18.10;99.90;;;;;;5067817;28;20201;-72
2021/08/31 03:39:23;;;;;;;19.75;15.85;;;18.10;99.90;;;;;;5068988;28;20709;-72
2021/08/31 03:41:50;;;;;;;18.73;14.52;;;18.10;99.90;;;;;;5070076;28;20685;-73
2021/08/31 03:44:18;;;;;;;20.60;14.55;;;18.10;99.90;;;;;;5068696;28;20527;-72
2021/08/31 03:46:45;;;;;;;18.30;13.93;;;18.10;99.90;;;;;;5070771;28;20713;-73
2021/08/31 03:49:12;;;;;;;21.67;14.90;;;18.10;99.90;;;;;;5059557;28;20569;-73
2021/08/31 03:51:39;;;;;;;21.10;14.30;;;18.10;99.90;;;;;;5061750;28;20236;-73
2021/08/31 03:54:06;;;;;;;15.75;13.25;;;18.10;99.90;;;;;;5064345;28;20227;-72
2021/08/31 03:56:33;;;;;;;19.20;14.13;;;18.10;99.90;;;;;;5064495;28;20676;-73
2021/08/31 03:59:00;;;;;;;18.52;13.27;;;18.50;99.90;;;;;;5060474;28;20248;-72
2021/08/31 04:01:28;;;;;;;15.70;11.93;;;18.10;99.90;;;;;;5058517;28;20208;-73
2021/08/31 04:03:55;;;;;;;17.10;10.57;;;18.20;99.90;;;;;;5069953;28;20268;-73
2021/08/31 04:06:22;;;;;;;9.88;7.60;;;18.20;99.90;;;;;;5069734;28;20759;-72
2021/08/31 04:08:49;;;;;;;9.50;6.53;;;18.20;99.90;;;;;;5068567;28;20209;-72
2021/08/31 04:11:16;;;;;;;9.85;6.82;;;18.20;99.90;;;;;;5060833;28;20208;-72
2021/08/31 04:13:43;;;;;;;12.13;9.43;;;18.20;99.90;;;;;;5067617;28;20240;-73
2021/08/31 04:16:10;;;;;;;16.48;10.73;;;18.20;99.90;;;;;;5069914;28;20201;-72
2021/08/31 04:18:38;;;;;;;13.43;8.70;;;18.20;99.90;;;;;;5068251;28;20204;-73
2021/08/31 04:21:05;;;;;;;8.63;7.18;;;18.20;99.90;;;;;;5065029;28;20213;-73
2021/08/31 04:23:32;;;;;;;12.85;7.50;;;18.20;99.90;;;;;;5060650;28;20197;-73
2021/08/31 04:25:59;;;;;;;9.45;7.93;;;18.20;99.90;;;;;;5055136;28;20206;-73
2021/08/31 04:28:26;;;;;;;10.23;7.97;;;18.20;99.90;;;;;;5066572;28;20546;-73
2021/08/31 04:30:53;;;;;;;8.40;7.05;;;18.20;99.90;;;;;;5060593;28;20275;-74
2021/08/31 04:33:20;;;;;;;10.95;7.82;;;18.20;99.90;;;;;;5066068;28;20204;-73
2021/08/31 04:35:48;;;;;;;7.15;6.40;;;18.20;99.90;;;;;;5056462;28;20205;-73
2021/08/31 04:38:15;;;;;;;12.52;6.38;;;18.60;99.90;;;;;;5066997;28;20712;-73
2021/08/31 04:40:42;;;;;;;10.35;8.32;;;18.10;99.90;;;;;;5059517;28;20231;-73
2021/08/31 04:43:09;;;;;;;11.98;9.07;;;18.20;99.90;;;;;;5067114;28;20201;-73
2021/08/31 04:45:36;;;;;;;12.05;8.00;;;18.20;99.90;;;;;;5058040;28;20197;-72
2021/08/31 04:48:04;;;;;;;8.82;6.78;;;18.20;99.90;;;;;;5068764;28;20239;-73
2021/08/31 04:50:30;;;;;;;7.97;6.00;;;18.20;99.90;;;;;;5050975;28;20526;-73
2021/08/31 04:52:59;;;;;;;11.80;7.80;;;18.20;99.90;;;;;;5064420;28;20267;-73
2021/08/31 04:55:26;;;;;;;9.48;7.40;;;18.20;99.90;;;;;;5067723;28;20201;-73
2021/08/31 04:57:53;;;;;;;9.60;7.03;;;18.20;99.90;;;;;;5067656;28;20209;-73
2021/08/31 05:00:20;;;;;;;7.63;5.97;;;18.20;99.90;;;;;;5068311;28;20692;-73
2021/08/31 05:02:49;;;;;;;8.93;6.85;;;18.20;99.90;;;;;;5068661;28;20251;-73
2021/08/31 05:05:16;;;;;;;11.00;6.60;;;18.20;99.90;;;;;;5068993;28;20196;-73
2021/08/31 05:07:43;;;;;;;12.75;5.85;;;18.30;99.90;;;;;;5056932;28;20254;-73
2021/08/31 05:10:11;;;;;;;6.00;5.40;;;18.30;99.90;;;;;;5056990;28;20738;-72
2021/08/31 05:12:38;;;;;;;9.15;5.35;;;18.20;99.90;;;;;;5067098;28;20640;-72
2021/08/31 05:15:06;;;;;;;9.73;5.28;;;18.20;99.90;;;;;;5067372;28;20213;-72
2021/08/31 05:17:34;;;;;;;12.63;5.38;;;18.20;99.90;;;;;;5056378;28;20217;-73
2021/08/31 05:20:01;;;;;;;9.70;5.68;;;18.20;99.90;;;;;;5065552;28;20212;-72
2021/08/31 05:22:28;;;;;;;8.35;5.07;;;18.20;99.90;;;;;;5059328;28;20270;-74
2021/08/31 05:24:55;;;;;;;7.68;5.70;;;18.30;99.90;;;;;;5066721;28;20276;-72
2021/08/31 05:27:24;;;;;;;5.95;5.05;;;18.30;99.90;;;;;;5067050;28;20655;-73
2021/08/31 05:29:51;;;;;;;11.85;5.15;;;18.30;99.90;;;;;;5067653;28;20197;-73
2021/08/31 05:32:18;;;;;;;12.10;5.57;;;18.30;99.90;;;;;;5068220;28;20197;-73
2021/08/31 05:34:45;;;;;;;7.07;5.47;;;18.40;99.90;;;;;;5066005;28;20211;-73
2021/08/31 05:37:12;;;;;;;5.75;4.80;;;18.40;99.90;;;;;;5068417;28;20291;-73
2021/08/31 05:39:39;;;;;;;9.18;5.38;;;18.30;99.90;;;;;;5067377;28;20671;-73
2021/08/31 05:42:08;;;;;;;8.27;6.47;;;18.40;99.90;;;;;;5053762;28;20456;-73
2021/08/31 05:44:38;;;;;;;9.43;5.88;;;18.40;99.90;;;;;;5068341;28;20197;-73
2021/08/31 05:47:06;;;;;;;7.75;5.55;;;18.40;99.90;;;;;;5068699;28;20208;-73
2021/08/31 05:49:33;;;;;;;11.05;6.47;;;18.40;99.90;;;;;;5066431;28;20606;-72
2021/08/31 05:52:01;;;;;;;8.32;5.70;;;18.40;99.90;;;;;;5067099;28;20204;-73
2021/08/31 05:54:29;;;;;;;7.50;5.28;;;18.50;99.90;;;;;;5065406;28;20208;-74
2021/08/31 05:56:57;;;;;;;8.70;5.80;;;18.50;99.90;;;;;;5064264;28;20193;-73
2021/08/31 05:59:24;;;;;;;8.55;5.75;;;18.50;99.90;;;;;;5067227;28;20262;-73
2021/08/31 06:01:53;;;;;;;8.57;6.07;;;18.50;99.90;;;;;;5059754;28;20247;-74
2021/08/31 06:04:22;;;;;;;10.38;5.18;;;18.50;99.90;;;;;;5068374;28;20201;-72
2021/08/31 06:06:49;;;;;;;9.18;5.22;;;18.50;99.90;;;;;;5055292;28;20233;-72
2021/08/31 06:09:16;;;;;;;9.90;6.43;;;18.60;99.90;;;;;;5066079;28;20213;-72
2021/08/31 06:11:44;;;;;;;9.90;6.43;;;18.50;99.90;;;;;;5059057;28;20495;-72
2021/08/31 06:14:11;;;;;;;14.23;6.00;;;18.60;99.90;;;;;;5042307;28;20255;-72
2021/08/31 06:16:38;;;;;;;9.60;6.65;;;18.50;99.90;;;;;;5058623;28;20228;-72
2021/08/31 06:19:07;;;;;;;10.60;6.40;;;18.60;99.90;;;;;;5046670;28;20251;-71
2021/08/31 06:21:34;;;;;;;15.27;6.45;;;18.60;99.90;;;;;;5054423;28;20228;-73
2021/08/31 06:24:01;;;;;;;9.95;5.50;;;18.60;99.90;;;;;;5059486;28;20324;-73
2021/08/31 06:26:29;;;;;;;10.25;6.10;;;18.60;99.90;;;;;;5052988;28;20319;-72
2021/08/31 06:28:56;;;;;;;8.50;5.53;;;18.60;99.90;;;;;;5056557;28;20212;-72
2021/08/31 06:31:22;;;;;;;6.80;5.38;;;18.60;99.90;;;;;;5053313;28;20276;-72
2021/08/31 06:33:49;;;;;;;9.48;5.70;;;18.70;99.90;;;;;;5055742;28;20201;-73
2021/08/31 06:36:18;;;;;;;11.73;5.82;;;18.70;99.90;;;;;;5060766;28;20198;-73
2021/08/31 06:38:45;;;;;;;9.55;5.45;;;18.70;99.90;;;;;;5059959;28;20197;-72
2021/08/31 06:41:12;;;;;;;8.57;6.25;;;18.70;99.90;;;;;;5055539;28;20286;-73
2021/08/31 06:43:39;;;;;;;11.63;6.68;;;18.70;99.90;;;;;;5066780;28;20203;-73
2021/08/31 06:46:06;;;;;;;8.07;5.40;;;18.70;99.90;;;;;;5066452;28;20201;-72
2021/08/31 06:48:33;;;;;;;13.38;7.07;;;18.70;99.90;;;;;;5068580;28;20749;-72
2021/08/31 06:51:00;;;;;;;12.20;6.53;;;18.60;99.90;;;;;;5063002;28;20190;-73
2021/08/31 06:53:28;;;;;;;8.35;6.20;;;18.60;99.90;;;;;;5063018;28;20205;-73
2021/08/31 06:55:55;;;;;;;9.77;5.38;;;18.60;99.90;;;;;;5063863;28;20680;-72
2021/08/31 06:58:22;;;;;;;6.72;5.47;;;18.60;99.90;;;;;;5066380;28;20198;-73
2021/08/31 07:00:49;;;;;;;10.55;6.47;;;18.60;99.90;;;;;;5057292;28;20557;-73
2021/08/31 07:03:16;;;;;;;10.93;6.97;;;18.70;99.90;;;;;;5059913;28;20403;-73
2021/08/31 07:05:43;;;;;;;12.20;6.32;;;18.80;99.90;;;;;;5062830;28;20208;-73
2021/08/31 07:08:10;;;;;;;12.85;6.28;;;18.80;99.90;;;;;;5060577;28;20193;-73
2021/08/31 07:10:39;;;;;;;9.90;6.70;;;18.60;99.90;;;;;;5064947;28;20193;-73
2021/08/31 07:13:06;;;;;;;11.33;6.90;;;18.60;99.90;;;;;;5060059;28;20536;-73
2021/08/31 07:15:33;;;;;;;10.75;6.93;;;18.60;99.90;;;;;;5077548;28;20605;-73
2021/08/31 07:18:00;;;;;;;11.95;7.07;;;18.50;99.90;;;;;;5064134;28;20635;-74
2021/08/31 07:20:28;;;;;;;10.27;6.30;;;18.50;99.90;;;;;;5058373;28;20274;-73
2021/08/31 07:22:55;;;;;;;9.98;6.55;;;18.40;99.90;;;;;;5064586;28;20196;-73
2021/08/31 07:25:22;;;;;;;10.55;6.50;;;18.40;99.90;;;;;;5062715;28;20204;-73
2021/08/31 07:27:51;;;;;;;9.48;6.47;;;18.40;99.90;;;;;;5060502;28;20679;-72
2021/08/31 07:30:18;;;;;;;10.40;6.28;;;18.40;99.90;;;;;;5057978;28;20572;-73
2021/08/31 07:32:45;;;;;;;8.80;6.80;;;18.30;99.90;;;;;;5060264;28;20214;-73
2021/08/31 07:35:12;;;;;;;7.35;6.00;;;18.40;99.90;;;;;;5058522;28;20672;-73
2021/08/31 07:37:39;;;;;;;11.20;6.90;;;18.40;99.90;;;;;;5067658;28;20215;-72
2021/08/31 07:40:08;;;;;;;13.38;6.72;;;18.40;99.90;;;;;;5059564;28;20759;-73
2021/08/31 07:42:35;;;;;;;7.95;6.30;;;18.50;99.90;;;;;;5059694;28;20657;-74
2021/08/31 07:45:07;;;;;;;9.43;5.78;;;18.50;99.90;;;;;;5057887;28;20513;-72
2021/08/31 07:47:35;;;;;;;8.98;6.60;;;18.60;99.90;;;;;;5057814;28;20198;-71
2021/08/31 07:50:03;;;;;;;8.45;5.82;;;18.70;99.90;;;;;;5060987;28;20625;-72
2021/08/31 07:52:30;;;;;;;10.10;6.50;;;18.70;99.90;;;;;;5052920;28;20205;-73
2021/08/31 07:54:57;;;;;;;11.63;6.90;;;18.70;99.90;;;;;;5065661;28;20208;-72
2021/08/31 07:57:24;;;;;;;20.83;6.65;;;18.70;99.90;;;;;;5056414;28;20205;-72
2021/08/31 07:59:51;;;;;;;9.00;6.43;;;18.80;99.90;;;;;;5058209;28;20212;-72
2021/08/31 08:02:19;;;;;;;10.52;6.03;;;18.80;99.90;;;;;;5055462;28;20232;-73
2021/08/31 08:04:47;;;;;;;8.65;6.18;;;18.80;99.90;;;;;;5059271;28;20197;-73
2021/08/31 08:07:14;;;;;;;11.98;5.95;;;18.90;99.90;;;;;;5059921;28;20201;-73
2021/08/31 08:09:41;;;;;;;9.05;6.18;;;18.90;99.90;;;;;;5052907;28;20433;-74
2021/08/31 08:12:10;;;;;;;9.73;6.25;;;19.00;99.90;;;;;;5055935;28;20375;-73
2021/08/31 08:14:37;;;;;;;9.75;6.20;;;19.00;99.90;;;;;;5062307;28;20281;-75
2021/08/31 08:17:04;;;;;;;11.30;6.35;;;19.10;99.90;;;;;;5057351;28;20762;-74
2021/08/31 08:19:33;;;;;;;8.23;6.40;;;19.00;99.90;;;;;;5058429;28;20206;-73
2021/08/31 08:22:00;;;;;;;8.10;6.05;;;18.90;99.90;;;;;;5062975;28;20591;-72
2021/08/31 08:24:27;;;;;;;9.20;5.88;;;18.90;99.90;;;;;;5061938;28;20665;-72
2021/08/31 08:26:58;;;;;;;8.20;5.85;;;18.90;99.90;;;;;;5079147;28;20214;-73
2021/08/31 08:29:27;;;;;;;16.00;6.47;;;19.00;99.90;;;;;;5055122;28;20197;-72
2021/08/31 08:31:55;;;;;;;11.43;5.75;;;18.90;99.90;;;;;;5061639;28;20235;-73
2021/08/31 08:34:22;;;;;;;7.43;5.65;;;19.00;99.90;;;;;;5054304;28;20206;-73
2021/08/31 08:36:51;;;;;;;13.32;6.45;;;19.00;99.90;;;;;;5060863;28;20219;-72
2021/08/31 08:39:18;;;;;;;10.93;6.00;;;19.00;99.90;;;;;;5061895;28;20216;-72
2021/08/31 08:41:45;;;;;;;10.32;6.13;;;19.10;99.90;;;;;;5057039;28;20216;-73
2021/08/31 08:44:12;;;;;;;16.50;6.30;;;19.10;99.90;;;;;;5057034;28;20189;-72
2021/08/31 08:46:39;;;;;;;7.38;5.47;;;19.10;99.90;;;;;;5056355;28;20241;-72
2021/08/31 08:49:11;;;;;;;10.20;6.13;;;19.10;99.90;;;;;;5063871;28;20205;-72
2021/08/31 08:51:39;;;;;;;7.65;5.30;;;19.10;99.90;;;;;;5060189;28;20278;-73
2021/08/31 08:54:07;;;;;;;15.88;5.93;;;19.10;99.90;;;;;;5052877;28;20361;-72
2021/08/31 08:56:34;;;;;;;10.65;6.15;;;19.10;99.90;;;;;;5061482;28;20559;-73
2021/08/31 08:59:02;;;;;;;9.70;6.10;;;19.10;99.90;;;;;;5063841;28;20196;-72
2021/08/31 09:01:41;;;;;;;8.32;5.82;;;19.20;99.90;;;;;;5053151;28;20245;-74
2021/08/31 09:04:08;;;;;;;12.25;6.15;;;19.40;99.90;;;;;;5057609;28;20197;-74
2021/08/31 09:06:36;;;;;;;8.55;6.10;;;19.80;99.90;;;;;;5063733;28;20789;-74
2021/08/31 09:09:05;;;;;;;10.35;5.82;;;19.90;99.90;;;;;;5049358;28;20201;-72
2021/08/31 09:11:37;;;;;;;7.00;5.13;;;20.00;99.90;;;;;;5052970;28;20189;-72
2021/08/31 09:14:23;;;;;;;9.10;5.80;;;20.20;99.90;;;;;;5063916;28;20245;-73
2021/08/31 09:16:51;;;;;;;11.55;6.07;;;20.40;99.90;;;;;;5060828;28;20657;-72
2021/08/31 09:19:19;;;;;;;8.32;5.78;;;20.90;99.90;;;;;;5062598;28;20197;-74
2021/08/31 09:21:48;;;;;;;9.43;6.18;;;21.70;99.90;;;;;;5053643;28;20316;-74
2021/08/31 09:24:15;;;;;;;10.25;6.60;;;21.70;99.90;;;;;;5058627;28;20649;-75
2021/08/31 09:26:45;;;;;;;10.60;6.00;;;21.80;99.90;;;;;;5060766;28;20200;-75
2021/08/31 09:29:18;;;;;;;8.10;5.57;;;22.10;99.90;;;;;;5054656;28;20204;-75
2021/08/31 09:31:55;;;;;;;16.58;6.50;;;22.20;99.90;;;;;;5058745;28;20654;-75
2021/08/31 09:34:40;;;;;;;12.82;6.15;;;22.30;99.90;;;;;;5057267;28;20302;-75
2021/08/31 09:37:34;;;;;;;9.88;5.78;;;22.10;99.90;;;;;;5062868;28;20237;-76
2021/08/31 09:40:10;;;;;;;8.07;6.13;;;21.90;99.90;;;;;;5053428;28;20201;-74
2021/08/31 09:42:53;;;;;;;13.95;5.55;;;21.80;99.90;;;;;;5051082;28;20231;-74
2021/08/31 09:45:25;;;;;;;9.57;5.85;;;21.60;99.90;;;;;;5056320;28;20543;-75
2021/08/31 09:47:52;;;;;;;11.48;5.90;;;21.30;99.90;;;;;;5061637;28;20743;-75
2021/08/31 09:50:31;;;;;;;8.00;5.57;;;21.10;99.90;;;;;;5058639;28;20450;-75
2021/08/31 09:53:06;;;;;;;9.00;5.68;;;21.30;99.90;;;;;;5050576;28;20549;-76
2021/08/31 09:55:33;;;;;;;11.30;6.25;;;21.20;99.90;;;;;;5060410;28;20197;-74
2021/08/31 09:58:13;;;;;;;11.13;6.40;;;21.10;99.90;;;;;;5060674;28;20196;-75
2021/08/31 10:00:42;;;;;;;8.02;5.95;;;20.90;99.90;;;;;;5060432;28;20211;-75
2021/08/31 10:03:10;;;;;;;8.77;6.43;;;20.80;99.90;;;;;;5067349;28;20209;-74
2021/08/31 10:05:39;;;;;;;14.88;6.53;;;20.70;99.90;;;;;;5063998;28;20263;-75
2021/08/31 10:08:11;;;;;;;11.10;6.28;;;20.60;99.90;;;;;;5059090;28;20299;-75
2021/08/31 10:10:39;;;;;;;11.73;6.00;;;21.10;99.90;;;;;;5060357;28;20616;-75
2021/08/31 10:13:11;;;;;;;11.15;5.93;;;21.40;99.90;;;;;;5057834;28;20243;-75
2021/08/31 10:15:44;;;;;;;11.25;6.38;;;21.20;99.90;;;;;;5049687;28;20198;-72
2021/08/31 10:18:11;;;;;;;9.65;6.18;;;21.00;99.90;;;;;;5065574;28;20288;-75
2021/08/31 10:20:44;;;;;;;7.32;5.40;;;20.80;99.90;;;;;;5062204;28;20223;-75
2021/08/31 10:23:13;;;;;;;11.05;6.25;;;21.00;99.90;;;;;;5062992;28;20197;-75
2021/08/31 10:25:40;;;;;;;12.52;6.25;;;21.50;99.90;;;;;;5068281;28;20611;-75
2021/08/31 10:28:24;;;;;;;13.65;6.35;;;22.00;99.90;;;;;;5057447;28;20220;-75
2021/08/31 10:30:52;;;;;;;9.65;6.35;;;21.80;99.90;;;;;;5065810;28;20515;-74
2021/08/31 10:33:43;;;;;;;7.50;5.72;;;21.70;99.90;;;;;;5052447;28;20209;-74
2021/08/31 10:36:12;;;;;;;13.90;6.13;;;21.50;99.90;;;;;;5002843;28;20219;-75
2021/08/31 10:38:55;;;;;;;11.13;5.88;;;21.50;99.90;;;;;;5000964;28;20207;-75
2021/08/31 10:41:43;;;;;;;9.55;5.72;;;21.60;99.90;;;;;;4986583;28;20215;-73
2021/08/31 10:44:14;;;;;;;11.15;5.93;;;21.90;99.90;;;;;;5002427;28;20211;-72
2021/08/31 10:47:07;;;;;;;12.50;6.47;;;22.20;99.90;;;;;;4984737;28;20690;-74
2021/08/31 10:50:13;;;;;;;9.77;5.63;;;22.30;99.90;;;;;;4984128;28;20207;-73
2021/08/31 10:52:41;;;;;;;7.60;5.68;;;22.30;99.90;;;;;;4995092;28;20215;-76
2021/08/31 10:55:46;;;;;;;20.85;6.22;;;22.10;99.90;;;;;;5003982;28;20206;-78
2021/08/31 10:58:15;;;;;;;13.40;6.00;;;21.80;99.90;;;;;;5004137;28;20454;-77
2021/08/31 11:00:51;;;;;;;10.10;5.85;;;21.60;99.90;;;;;;4981450;28;20210;-81
2021/08/31 11:03:37;;;;;;;10.07;5.82;;;21.60;99.90;;;;;;4988859;28;20225;-80
2021/08/31 11:06:31;;;;;;;7.55;5.22;;;21.50;99.90;;;;;;5001646;28;20674;-79
2021/08/31 11:09:19;;;;;;;8.15;5.10;;;21.50;99.90;;;;;;4945464;28;20212;-79
2021/08/31 11:11:51;;;;;;;12.73;6.18;;;21.50;99.90;;;;;;4962067;28;20197;-79
2021/08/31 11:14:19;;;;;;;7.13;5.38;;;21.50;99.90;;;;;;5039365;28;20769;-79
2021/08/31 11:16:52;;;;;;;10.90;5.80;;;21.40;99.90;;;;;;5017806;28;20230;-79
2021/08/31 11:19:25;;;;;;;8.73;5.53;;;21.30;99.90;;;;;;5019094;28;20212;-78
2021/08/31 11:21:55;;;;;;;9.27;5.95;;;21.20;99.90;;;;;;5016540;28;20345;-76
2021/08/31 11:24:23;;;;;;;10.95;5.75;;;21.40;99.90;;;;;;5034735;28;20201;-75
2021/08/31 11:26:50;;;;;;;11.02;5.28;;;21.70;99.90;;;;;;5012957;28;20939;-76
2021/08/31 11:29:17;;;;;;;7.32;4.90;;;22.10;99.90;;;;;;5020631;28;20632;-76
2021/08/31 11:31:44;;;;;;;9.27;5.45;;;22.70;99.90;;;;;;5041942;28;20285;-76
2021/08/31 11:34:13;;;;;;;8.63;5.15;;;23.30;99.90;;;;;;5019676;28;20202;-76
2021/08/31 11:36:43;;;;;;;12.07;5.75;;;23.50;99.90;;;;;;5022831;28;20206;-75
2021/08/31 11:39:15;;;;;;;7.45;5.07;;;23.30;99.90;;;;;;5040688;28;20443;-76
2021/08/31 11:41:43;;;;;;;9.55;5.38;;;23.00;99.90;;;;;;5036249;28;20225;-77
2021/08/31 11:44:13;;;;;;;10.27;5.60;;;22.70;99.90;;;;;;5036949;28;20205;-77
2021/08/31 11:46:42;;;;;;;11.05;5.38;;;22.50;99.90;;;;;;5075168;28;20201;-75
2021/08/31 11:49:14;;;;;;;10.45;6.32;;;22.20;99.90;;;;;;5065051;28;20212;-78
2021/08/31 11:51:43;;;;;;;14.80;9.35;;;21.80;99.90;;;;;;5055267;28;20186;-76
2021/08/31 11:54:12;;;;;;;9.93;6.93;;;21.40;99.90;;;;;;5056090;28;20263;-75
2021/08/31 11:56:40;;;;;;;10.55;6.72;;;21.10;99.90;;;;;;5057971;28;20206;-77
2021/08/31 11:59:08;;;;;;;12.85;8.07;;;20.90;99.90;;;;;;5057718;28;20581;-76
2021/08/31 12:01:37;;;;;;;14.60;9.40;;;20.70;99.90;;;;;;5059911;28;20978;-76
2021/08/31 12:04:24;;;;;;;11.63;8.98;;;20.60;99.90;;;;;;5053481;28;20354;-76
2021/08/31 12:06:57;;;;;;;13.27;8.82;;;20.50;99.90;;;;;;5058324;28;20231;-76
2021/08/31 12:09:26;;;;;;;13.90;9.05;;;20.50;99.90;;;;;;5052294;28;20293;-75
2021/08/31 12:11:54;;;;;;;11.30;7.97;;;20.50;99.90;;;;;;5063580;28;20518;-77
2021/08/31 12:14:22;;;;;;;12.57;8.05;;;20.50;99.90;;;;;;5060529;28;20229;-76
2021/08/31 12:16:50;;;;;;;21.70;9.18;;;20.50;99.90;;;;;;5064474;28;20740;-73
2021/08/31 12:19:18;;;;;;;13.68;7.53;;;20.50;99.90;;;;;;5065583;28;21045;-73
2021/08/31 12:22:04;;;;;;;15.80;8.70;;;20.40;99.90;;;;;;5066532;28;20217;-73
2021/08/31 12:24:32;;;;;;;10.70;8.20;;;20.40;99.90;;;;;;5057751;28;20207;-73
2021/08/31 12:27:11;;;;;;;16.77;8.90;;;20.30;99.90;;;;;;5071448;28;20197;-72
2021/08/31 12:29:53;;;;;;;15.55;8.48;;;20.40;99.90;;;;;;5066122;28;20220;-72
2021/08/31 12:32:25;;;;;;;16.10;7.10;;;20.30;99.90;;;;;;5060971;28;20272;-70
2021/08/31 12:34:53;;;;;;;13.00;8.85;;;20.30;99.90;;;;;;5059054;28;20314;-69
2021/08/31 12:37:33;;;;;;;12.73;7.82;;;20.30;99.90;;;;;;5064278;28;20194;-69
2021/08/31 12:40:11;;;;;;;13.35;9.23;;;20.40;99.90;;;;;;5053757;28;20450;-68
2021/08/31 12:42:39;;;;;;;11.45;7.78;;;20.40;99.90;;;;;;5050579;28;20448;-68
2021/08/31 12:45:06;;;;;;;13.25;7.40;;;20.50;99.90;;;;;;5057579;28;20720;-71
2021/08/31 12:47:33;;;;;;;10.38;7.60;;;20.60;99.90;;;;;;5063763;28;20641;-73
2021/08/31 12:50:08;;;;;;;8.95;6.43;;;20.60;99.90;;;;;;5057322;28;20442;-72